Meteo Giornale » Osservazioni meteo Repubblica Ceca » Pardubice

ore: 21:30 - Osservazioni Meteo Pardubice
Lat. 50° 1' N Lon. 15° 44' E Alt. 226 metri s.l.m.

sereno Europe/Prague

9 °C

Sereno

Temp. 24 Ore

2 °C

15 °C

Est/Sud-Est

11.1 Km/h

Dew point 2 °C

Umidità 61 %

Visibilità  10 Km

Il sole sorge alle ore 05:19

Il sole tramonta alle ore 20:28

Data e Ora Cielo e Fenomeni T °C DP °C Um. % Pres. hPa Vis. km Vento km/h
Oggi h: 21:30 sereno Sereno 9 2 61 1018 10 E/SE 11.1
Oggi h: 21:00 sereno Sereno 11 1 50 1018 10 E 9.3
Oggi h: 20:30 sereno Sereno 12 -1 40 1017 10 E 7.4
Oggi h: 20:00 sereno Sereno 13 -2 35 1017 10 N 5.5
Oggi h: 19:30 sereno Sereno 14 -2 32 1018 10 N 1.8
Oggi h: 19:00 sereno Sereno 14 -3 30 1018 10 N 5.5
Oggi h: 18:30 sereno Sereno 14 -2 32 1018 10 O 7.4
Oggi h: 18:00 sereno Sereno 14 -2 32 1018 10 O/SO 14.8
Oggi h: 17:30 sereno Sereno 14 -2 32 1018 10 O 9.3
Oggi h: 17:00 sereno Sereno 15 -2 30 1018 10 N 9.3
Oggi h: 16:30 sereno Sereno 14 -2 32 1019 10 O 7.4
Oggi h: 16:00 sereno Sereno 13 -1 37 1019 10 N 11.1
Oggi h: 15:30 sereno Sereno 14 -1 35 1019 10 N 5.5
Oggi h: 15:00 sereno Sereno 14 -2 32 1019 10 N 7.4
Oggi h: 14:30 sereno Sereno 13 -1 37 1020 10 O/SO 14.8
Oggi h: 14:00 sereno Sereno 13 -2 35 1020 10 O 11.1
Oggi h: 13:30 sereno Sereno 13 -1 37 1020 10 O 16.7
Oggi h: 13:00 molto_nuvoloso Molto Nuvoloso 12 -1 40 1020 10 SO 14.8
Oggi h: 12:30 molto_nuvoloso Molto Nuvoloso 12 -1 40 1020 10 O 11.1
Oggi h: 12:00 nuvoloso Nuvoloso 13 -0 40 1021 10 SO 9.3
Oggi h: 11:30 nuvoloso Nuvoloso 11 -0 46 1021 10 O/SO 16.7
Oggi h: 11:00 nuvoloso Nuvoloso 11 -2 40 1021 10 O 14.8
Oggi h: 09:00 poco_nuvoloso Poco Nuvoloso 8 2 65 1021 10 O 9.3
Oggi h: 08:30 sereno Sereno 7 1 65 1021 10 N 3.7
Oggi h: 07:30 sereno Sereno 5 1 75 1021 10 N 3.7
Oggi h: 07:00 sereno Sereno 3 1 86 1021 10 N 5.5
Oggi h: 06:30 sereno Sereno 2 0 86 1020 10 E 7.4
Oggi h: 06:00 sereno Sereno 2 0 86 1020 10 N 1.8
Oggi h: 05:30 sereno Sereno 3 0 80 1020 10 N 1.8
Oggi h: 05:00 sereno Sereno 2 -0 86 1020 10 N 5.5
Oggi h: 04:30 sereno Sereno 3 -0 80 1019 10 N 5.5
Oggi h: 04:00 sereno Sereno 3 0 80 1019 10 O 7.4
Oggi h: 03:30 sereno Sereno 3 -0 80 1019 10 O 9.3
Oggi h: 03:00 sereno Sereno 3 -0 80 1019 10 O 11.1
Oggi h: 02:30 sereno Sereno 3 0 80 1019 10 O 9.3
Oggi h: 02:00 sereno Sereno 3 -0 80 1019 10 O 9.3
Oggi h: 01:30 sereno Sereno 3 0 80 1019 10 O/NO 9.3
Oggi h: 00:30 sereno Sereno 4 0 75 1018 10 O 11.1
Oggi h: 00:00 sereno Sereno 5 0 70 1018 10 O 16.7
Ieri h: 23:30 sereno Sereno 5 0 70 1018 10 O 18.5
Ieri h: 23:00 sereno Sereno 6 1 70 1017 10 O 16.7
Ieri h: 22:30 sereno Sereno 7 1 65 1017 10 O/NO 13
Ieri h: 22:00 sereno Sereno 7 0 60 1017 10 O 16.7